map of KYA home
KYA - Airport
Location
City:  Konya, Konya, Turkey
ICAO:LTAN
IATA:KYA

Details
Type:Airport (Aerodrome, Airfield)
Use:Military
Latitude:3758'44"N (37.979000)
Longitude:3233'43"E (32.561861)
Datum:WGS 1984
Elevation:3381 ft (1031 m)
Variation:5.50E (WMM2015v2 magnetic declination)
0.09 annual change
Runways:1
Longest:10990 × 148 ft (3350 × 45 m), paved

Time
Time Zone:UTC+3
Local Time:

Weather
METAR:LTAN 041350Z 15003KT 100V200 9999 FEW040 SCT200 13/M03 Q1022 NOSIG RMK RWY19 15004KT 120V180

Related Locations
Nearby:
Farthest:RVV: 11459 mi / 18441 km
Raivavae, Tubuai Islands, Austral Islands, PF

Find:

   beyond  
but within

Other Information
Maps:
NOTAMs:
Links:
Sources:

  
  • flag of Turkey
  

Airport Diagram

Airport diagram for KYA

Larger airport diagram (OBSOLETE) from NGA

Sectional Chart

Flight Planning
at skyvector.com

Satellite Image

Google Maps Satellite view

 

Copyright © 2004-2019 Karl L. Swartz. All rights reserved.
The Great Circle Mapper name and logo are trademarks of the Great Circle Mapper.
All other trademarks mentioned herein belong to their respective owners.
Please see credits for attibutions and further copyright information.

  Follow gcmap on Facebook Follow gcmap on Twitter GCmap on LinkedIn

hCard Microformat

Geo Microformat